Detall de PIREP

Printer-friendly versionPDF version

[2012/01/14 21:34:00]
Flight IATA:CT0001
Pilot Number:037
Company ICAO:CAT
Aircraft Type:B752/E
PAX:155
Departing Airport: LEIB
Destination Airport: LEGE
Alternate Airport:LEPA
Online: VATSIM
Route:GATOS UN856 EBROX UM985 SALON UN855 BGR

Flight Level:F260
No Slew and time accel
No pause
Crash detect
Detect pilot in Cockpit between each 30 and 45 minutes
21:34 Zero fuel Weight: 167785 Lbs, Fuel Weight: 19063 Lbs
21:34 VATSIM:LEIB 142100Z 35003KT 330V030 8000 NSC 08/07 Q1019 NOSIG
21:34 VATSIM:LEGE 142100Z 32001KT 9999 FEW022 02/M00 Q1019
21:46 Parking Brakes off
21:54 Take-off
21:54 Take off Weight: 185675 Lbs
21:54 Wind: 319º @ 003 Knots Heading: 060º
21:54 POS N38º 52´ 26´´ E001º 22´ 32´´
21:54 Flaps:2 at 195 Knots
21:54 Flaps:1 at 220 Knots
21:54 Flaps:0 at 259 Knots
21:55 Gear Up: 227 Knots
22:06 TOC
22:06 Fuel Weight: 14620 Lb
22:09 Wind:331º@012 Knots Heading: 353º Ground Speed: 461 Knots Altitude 26167 ft
22:24 Wind:329º@035 Knots Heading: 043º Ground Speed: 462 Knots Altitude 26161 ft
22:28 TOD
22:28 Fuel Weight: 11265 Lb
22:37 Flaps:1 at 195 Knots
22:37 Flaps:2 at 171 Knots
22:38 Flaps:3 at 160 Knots
22:39 Wind:336º@006 Knots Heading: 305º Ground Speed: 207 Knots Altitude 4691 ft
22:41 Gear Down: 179 Knots
22:42 Flaps:4 at 135 Knots
22:44 Flaps:5 at 177 Knots
22:45 Flaps:6 at 156 Knots
22:47 TouchDown:Rate -212 ft/min Speed: 141 Knots
22:47 VATSIM:LEGE 142230Z 00000KT CAVOK 01/M01 Q1019
22:47 Land
22:47 Wind:332º@000 Knots
22:47 Heading: 194º
22:47 Flight Duration: 00:53
22:47 Landing Weight: 177075 Lbs
22:47 POS N41º 54´ 11´´ E002º 45´ 41´´
22:53 Parking brakes on
22:53 Block to Block Duration: 01:07
22:53 Final Fuel: 8403 Lbls
22:53 Spent Fuel: 10659 Lbls
22:53 Flight Length: 186 NM
22:53 TOD Land Length: 73 NM

Exportar CSV

Powered by Drupal - Modified by Danger4k